JBU280 KGJT-KDEN
Flight info
| Callsign | JBU280 |
|---|---|
| Flight time | N/A |
| Altitude | 27000 |
| Route | HAQHY SSKII4 |
| Aircraft | A320/M-SDE3FGHIRWY/LB1 |
Departure
| Time | 2026-04-23 04:34 |
|---|---|
| Airport | Grand Junction Regional Airport (KGJT) |
Arrival
| Time | N/A |
|---|---|
| Airport | Denver International Airport (KDEN) |
| Time | Latitude | Longitude | Altitude | Speed | Heading |
|---|---|---|---|---|---|
| 2026-04-23 04:16 | 39.12246 | -108.52743 | 4852 ft | 0 kts | 235° |
| 2026-04-23 04:27 | 39.12252 | -108.52732 | 4851 ft | 3 kts | 234° |
| 2026-04-23 04:27 | 39.12266 | -108.52710 | 4851 ft | 3 kts | 226° |
| 2026-04-23 04:28 | 39.12293 | -108.52683 | 4852 ft | 3 kts | 160° |
| 2026-04-23 04:28 | 39.12303 | -108.52690 | 4850 ft | 2 kts | 117° |
| 2026-04-23 04:28 | 39.12304 | -108.52692 | 4850 ft | 0 kts | 117° |
| 2026-04-23 04:29 | 39.12302 | -108.52687 | 4854 ft | 2 kts | 117° |
| 2026-04-23 04:29 | 39.12308 | -108.52702 | 4850 ft | 10 kts | 117° |
| 2026-04-23 04:30 | 39.12295 | -108.52610 | 4852 ft | 9 kts | 57° |
| 2026-04-23 04:30 | 39.12318 | -108.52553 | 4851 ft | 6 kts | 90° |
| 2026-04-23 04:30 | 39.12298 | -108.52500 | 4852 ft | 14 kts | 121° |
| 2026-04-23 04:30 | 39.12202 | -108.52324 | 4854 ft | 21 kts | 125° |
| 2026-04-23 04:31 | 39.12117 | -108.52170 | 4855 ft | 21 kts | 126° |
| 2026-04-23 04:31 | 39.12038 | -108.52015 | 4857 ft | 20 kts | 123° |
| 2026-04-23 04:31 | 39.11956 | -108.51868 | 4859 ft | 20 kts | 126° |
| 2026-04-23 04:31 | 39.11879 | -108.51731 | 4861 ft | 18 kts | 126° |
| 2026-04-23 04:32 | 39.11815 | -108.51617 | 4864 ft | 13 kts | 126° |
| 2026-04-23 04:32 | 39.11805 | -108.51530 | 4866 ft | 9 kts | 72° |
| 2026-04-23 04:32 | 39.11839 | -108.51488 | 4864 ft | 6 kts | 5° |
| 2026-04-23 04:32 | 39.11873 | -108.51505 | 4864 ft | 6 kts | 327° |
| 2026-04-23 04:33 | 39.11911 | -108.51545 | 4863 ft | 8 kts | 315° |
| 2026-04-23 04:33 | 39.11945 | -108.51612 | 4862 ft | 10 kts | 306° |
| 2026-04-23 04:33 | 39.11990 | -108.51692 | 4860 ft | 13 kts | 305° |
| 2026-04-23 04:33 | 39.12109 | -108.51913 | 4858 ft | 62 kts | 305° |
| 2026-04-23 04:34 | 39.12493 | -108.52608 | 4849 ft | 126 kts | 305° |
| 2026-04-23 04:34 | 39.13102 | -108.53726 | 4886 ft | 171 kts | 303° |
| 2026-04-23 04:34 | 39.13775 | -108.54944 | 5581 ft | 163 kts | 302° |
| 2026-04-23 04:34 | 39.14232 | -108.56271 | 5922 ft | 171 kts | 273° |
| 2026-04-23 04:35 | 39.14141 | -108.57894 | 6090 ft | 195 kts | 261° |
| 2026-04-23 04:35 | 39.13876 | -108.59689 | 6316 ft | 218 kts | 259° |
| 2026-04-23 04:35 | 39.13555 | -108.61735 | 6616 ft | 242 kts | 259° |
| 2026-04-23 04:35 | 39.13200 | -108.63951 | 7024 ft | 262 kts | 259° |
| 2026-04-23 04:36 | 39.12831 | -108.66283 | 7717 ft | 269 kts | 259° |
| 2026-04-23 04:36 | 39.12461 | -108.68637 | 8490 ft | 273 kts | 259° |
| 2026-04-23 04:36 | 39.12085 | -108.71050 | 9270 ft | 276 kts | 259° |
| 2026-04-23 04:36 | 39.11696 | -108.73546 | 9660 ft | 295 kts | 259° |
| 2026-04-23 04:37 | 39.11124 | -108.76180 | 9840 ft | 318 kts | 245° |
| 2026-04-23 04:37 | 39.09743 | -108.78497 | 10219 ft | 336 kts | 222° |
| 2026-04-23 04:37 | 39.07682 | -108.79994 | 10769 ft | 348 kts | 200° |
| 2026-04-23 04:37 | 39.05261 | -108.80404 | 11391 ft | 359 kts | 179° |
| 2026-04-23 04:38 | 39.02814 | -108.79658 | 12024 ft | 368 kts | 159° |
| 2026-04-23 04:38 | 39.00661 | -108.77894 | 12629 ft | 377 kts | 139° |
| 2026-04-23 04:38 | 38.99024 | -108.75194 | 13136 ft | 385 kts | 119° |
| 2026-04-23 04:38 | 38.98069 | -108.71976 | 13280 ft | 387 kts | 109° |
| 2026-04-23 04:39 | 38.97245 | -108.68679 | 13317 ft | 387 kts | 109° |
| 2026-04-23 04:39 | 38.96431 | -108.65383 | 13312 ft | 387 kts | 109° |
| 2026-04-23 04:39 | 38.95614 | -108.62093 | 13312 ft | 386 kts | 109° |
| 2026-04-23 04:39 | 38.94791 | -108.58806 | 13316 ft | 386 kts | 109° |
| 2026-04-23 04:40 | 38.93964 | -108.55528 | 13306 ft | 385 kts | 109° |
| 2026-04-23 04:40 | 38.93131 | -108.52250 | 13410 ft | 388 kts | 109° |
| 2026-04-23 04:40 | 38.92289 | -108.48950 | 14067 ft | 389 kts | 109° |
| 2026-04-23 04:40 | 38.91445 | -108.45635 | 14691 ft | 392 kts | 109° |
| 2026-04-23 04:41 | 38.90596 | -108.42303 | 15302 ft | 394 kts | 109° |
| 2026-04-23 04:41 | 38.89739 | -108.38943 | 15877 ft | 397 kts | 109° |
| 2026-04-23 04:41 | 38.88875 | -108.35563 | 16443 ft | 400 kts | 109° |
| 2026-04-23 04:41 | 38.88016 | -108.32206 | 16999 ft | 403 kts | 109° |
| 2026-04-23 04:42 | 38.87138 | -108.28781 | 17538 ft | 406 kts | 109° |
| 2026-04-23 04:42 | 38.86247 | -108.25319 | 18048 ft | 410 kts | 109° |
| 2026-04-23 04:42 | 38.85348 | -108.21835 | 18529 ft | 413 kts | 109° |
| 2026-04-23 04:42 | 38.84445 | -108.18325 | 19026 ft | 416 kts | 109° |
| 2026-04-23 04:43 | 38.83531 | -108.14781 | 19520 ft | 419 kts | 109° |
| 2026-04-23 04:43 | 38.82612 | -108.11226 | 20006 ft | 421 kts | 109° |
| 2026-04-23 04:43 | 38.81686 | -108.07654 | 20521 ft | 424 kts | 110° |
| 2026-04-23 04:43 | 38.80750 | -108.04062 | 21010 ft | 426 kts | 110° |
| 2026-04-23 04:44 | 38.79808 | -108.00452 | 21482 ft | 428 kts | 110° |